createdAt,value
2022-09-28T00:00:49.258Z,2.87
2022-09-28T00:03:10.643Z,2.80
2022-09-28T00:05:32.651Z,5.53
2022-09-28T00:07:55.809Z,7.60
2022-09-28T00:10:17.053Z,2.20
2022-09-28T00:12:38.944Z,1.60
2022-09-28T00:15:00.567Z,2.20
2022-09-28T00:17:22.765Z,1.97
2022-09-28T00:19:45.095Z,2.40
2022-09-28T00:22:06.271Z,2.50
2022-09-28T00:24:29.689Z,1.97
2022-09-28T00:26:51.703Z,2.00
2022-09-28T00:29:17.952Z,1.87
2022-09-28T00:31:39.003Z,2.87
2022-09-28T00:34:00.544Z,1.93
2022-09-28T00:36:21.677Z,1.87
2022-09-28T00:38:42.948Z,36.80
2022-09-28T00:41:05.908Z,18.53
2022-09-28T00:43:27.064Z,5.87
2022-09-28T00:45:50.658Z,3.47
2022-09-28T00:48:12.524Z,2.80
2022-09-28T00:50:35.219Z,3.50
2022-09-28T00:52:59.367Z,7.23
2022-09-28T00:55:21.953Z,5.70
2022-09-28T00:57:47.468Z,4.70
2022-09-28T01:00:09.147Z,3.77
2022-09-28T01:02:30.372Z,3.63
2022-09-28T01:04:52.401Z,5.10
2022-09-28T01:07:14.055Z,5.73
2022-09-28T01:09:36.384Z,3.90
2022-09-28T01:11:57.377Z,3.60
2022-09-28T01:14:20.763Z,3.50
2022-09-28T01:16:43.367Z,4.03
2022-09-28T01:19:12.379Z,3.23
2022-09-28T01:21:39.404Z,3.03
2022-09-28T01:24:09.545Z,2.90
2022-09-28T01:26:41.820Z,2.30
2022-09-28T01:29:05.625Z,2.83
2022-09-28T01:31:28.330Z,2.43
2022-09-28T01:33:54.532Z,2.30
2022-09-28T01:36:19.788Z,1.70
2022-09-28T01:38:43.436Z,1.70
2022-09-28T01:41:05.206Z,1.83
2022-09-28T01:43:28.562Z,1.73
2022-09-28T01:45:51.066Z,1.67
2022-09-28T01:48:13.889Z,1.40
2022-09-28T01:50:37.527Z,1.40
2022-09-28T01:53:01.339Z,1.40
2022-09-28T01:55:26.879Z,1.63
2022-09-28T01:57:50.241Z,1.30
2022-09-28T02:00:14.933Z,1.47
2022-09-28T02:02:37.648Z,1.60
2022-09-28T02:04:59.980Z,1.37
2022-09-28T02:07:22.511Z,1.50
2022-09-28T02:09:45.367Z,1.30
2022-09-28T02:12:10.728Z,1.40
2022-09-28T02:14:31.825Z,1.30
2022-09-28T02:16:55.266Z,1.80
2022-09-28T02:19:18.354Z,1.60
2022-09-28T02:21:42.671Z,1.70
2022-09-28T02:24:04.800Z,1.60
2022-09-28T02:26:30.444Z,1.60
2022-09-28T02:28:51.536Z,1.50
2022-09-28T02:31:12.896Z,1.47
2022-09-28T02:33:38.040Z,1.70
2022-09-28T02:35:59.625Z,1.43
2022-09-28T02:38:20.615Z,1.60
2022-09-28T02:40:44.291Z,1.50
2022-09-28T02:43:11.555Z,1.43
2022-09-28T02:45:43.358Z,1.40
2022-09-28T02:48:09.276Z,1.50
2022-09-28T02:50:36.651Z,1.63
2022-09-28T02:53:07.117Z,1.33
2022-09-28T02:55:35.302Z,1.57
2022-09-28T02:58:14.020Z,1.80
2022-09-28T03:00:38.727Z,1.77
2022-09-28T03:03:02.275Z,1.70
2022-09-28T03:05:26.472Z,1.50
2022-09-28T03:07:51.844Z,1.80
2022-09-28T03:10:16.333Z,1.67
2022-09-28T03:12:38.492Z,1.70
2022-09-28T03:15:10.833Z,1.83
2022-09-28T03:17:32.059Z,1.67
2022-09-28T03:19:53.266Z,1.90
2022-09-28T03:22:14.577Z,2.33
2022-09-28T03:24:37.263Z,1.90
2022-09-28T03:26:58.362Z,2.10
2022-09-28T03:29:20.677Z,2.37
2022-09-28T03:31:41.564Z,2.07
2022-09-28T03:34:02.804Z,2.10
2022-09-28T03:36:24.121Z,2.33
2022-09-28T03:38:45.218Z,1.97
2022-09-28T03:41:09.423Z,2.13
2022-09-28T03:43:32.133Z,2.10
2022-09-28T03:45:54.611Z,1.87
2022-09-28T03:48:16.714Z,1.90
2022-09-28T03:50:39.931Z,1.83
2022-09-28T03:53:04.644Z,2.20
2022-09-28T03:55:25.592Z,1.80
2022-09-28T03:57:53.549Z,2.00
2022-09-28T04:00:14.699Z,1.70
2022-09-28T04:02:36.165Z,1.70
2022-09-28T04:04:57.677Z,2.00
2022-09-28T04:07:18.677Z,2.13
2022-09-28T04:09:40.056Z,2.00
2022-09-28T04:12:04.252Z,1.80
2022-09-28T04:14:27.089Z,1.90
2022-09-28T04:16:48.487Z,2.20
2022-09-28T04:19:10.156Z,1.70
2022-09-28T04:21:31.566Z,1.73
2022-09-28T04:23:53.032Z,1.80
2022-09-28T04:26:16.598Z,1.63
2022-09-28T04:28:55.601Z,1.70
2022-09-28T04:31:19.285Z,1.83
2022-09-28T04:33:40.452Z,1.80
2022-09-28T04:36:01.833Z,2.03
2022-09-28T04:38:41.598Z,1.70
2022-09-28T04:41:03.908Z,1.80
2022-09-28T04:43:25.155Z,1.63
2022-09-28T04:45:46.742Z,2.00
2022-09-28T04:48:09.185Z,2.30
2022-09-28T04:50:31.238Z,2.10
2022-09-28T04:52:52.648Z,1.80
2022-09-28T04:55:14.451Z,2.10
2022-09-28T04:57:36.102Z,1.70
2022-09-28T04:59:57.459Z,1.80
2022-09-28T05:02:18.811Z,1.80
2022-09-28T05:04:41.503Z,1.83
2022-09-28T05:07:02.481Z,1.70
2022-09-28T05:09:23.859Z,1.80
2022-09-28T05:11:45.132Z,2.27
2022-09-28T05:14:06.830Z,1.40
2022-09-28T05:16:28.595Z,1.67
2022-09-28T05:18:49.829Z,2.13
2022-09-28T05:21:13.102Z,2.50
2022-09-28T05:23:34.674Z,1.97
2022-09-28T05:25:55.808Z,2.40
2022-09-28T05:28:21.139Z,1.77
2022-09-28T05:30:42.012Z,2.03
2022-09-28T05:33:03.092Z,2.07
2022-09-28T05:35:24.325Z,2.70
2022-09-28T05:37:46.920Z,3.70
2022-09-28T05:40:08.270Z,2.40
2022-09-28T05:42:29.631Z,2.40
2022-09-28T05:44:51.305Z,2.10
2022-09-28T05:47:12.458Z,3.93
2022-09-28T05:49:33.803Z,2.20
2022-09-28T05:51:55.103Z,2.10
2022-09-28T05:54:18.026Z,2.40
2022-09-28T05:56:39.101Z,2.50
2022-09-28T05:59:00.389Z,2.00
2022-09-28T06:01:22.018Z,1.80
2022-09-28T06:03:43.469Z,1.93
2022-09-28T06:06:04.932Z,2.20
2022-09-28T06:08:26.325Z,2.00
2022-09-28T06:10:48.644Z,2.30
2022-09-28T06:13:10.437Z,2.30
2022-09-28T06:15:32.458Z,1.80
2022-09-28T06:17:56.841Z,1.67
2022-09-28T06:20:17.833Z,1.70
2022-09-28T06:22:39.675Z,1.87
2022-09-28T06:25:01.172Z,3.07
2022-09-28T06:27:23.896Z,3.20
2022-09-28T06:29:46.116Z,3.90
2022-09-28T06:32:07.682Z,5.00
2022-09-28T06:34:29.918Z,3.53
2022-09-28T06:36:51.309Z,4.33
2022-09-28T06:39:14.652Z,3.20
2022-09-28T06:41:35.821Z,2.37
2022-09-28T06:43:58.350Z,2.73
2022-09-28T06:46:20.936Z,2.60
2022-09-28T06:48:42.632Z,2.50
2022-09-28T06:51:04.590Z,2.57
2022-09-28T06:53:27.147Z,2.70
2022-09-28T06:55:49.088Z,2.70
2022-09-28T06:58:12.100Z,2.70
2022-09-28T07:00:36.373Z,3.20
2022-09-28T07:02:57.376Z,2.67
2022-09-28T07:05:19.217Z,2.60
2022-09-28T07:07:42.834Z,2.90
2022-09-28T07:10:03.938Z,3.80
2022-09-28T07:12:25.308Z,2.83
2022-09-28T07:14:48.223Z,3.60
2022-09-28T07:17:14.140Z,4.40
2022-09-28T07:19:36.640Z,3.67
2022-09-28T07:22:04.777Z,2.77
2022-09-28T07:24:27.487Z,2.77
2022-09-28T07:26:48.738Z,2.70
2022-09-28T07:29:11.121Z,2.50
2022-09-28T07:31:33.641Z,2.70
2022-09-28T07:33:56.929Z,2.50
2022-09-28T07:36:20.856Z,2.27
2022-09-28T07:38:43.986Z,2.07
2022-09-28T07:41:14.150Z,2.30
2022-09-28T07:43:35.443Z,2.67
2022-09-28T07:45:56.822Z,2.53
2022-09-28T07:48:18.663Z,2.50
2022-09-28T07:50:41.121Z,2.50
2022-09-28T07:53:02.307Z,2.43
2022-09-28T07:55:23.424Z,3.23
2022-09-28T07:57:48.283Z,2.97
2022-09-28T08:00:10.234Z,3.43
2022-09-28T08:02:33.934Z,2.93
2022-09-28T08:04:55.197Z,3.63
2022-09-28T08:07:21.672Z,2.80
2022-09-28T08:09:44.839Z,2.70
2022-09-28T08:12:06.056Z,2.60
2022-09-28T08:14:28.539Z,2.70
2022-09-28T08:16:52.038Z,2.53
2022-09-28T08:19:14.757Z,2.67
2022-09-28T08:21:47.917Z,2.60
2022-09-28T08:24:10.341Z,2.57
2022-09-28T08:26:31.156Z,2.70
2022-09-28T08:28:52.581Z,2.20
2022-09-28T08:31:14.194Z,2.33
2022-09-28T08:33:35.178Z,2.50
2022-09-28T08:35:57.477Z,2.43
2022-09-28T08:38:18.788Z,2.47
2022-09-28T08:40:45.780Z,2.87
2022-09-28T08:43:15.336Z,2.57
2022-09-28T08:45:36.633Z,2.67
2022-09-28T08:48:20.846Z,2.77
2022-09-28T08:50:46.701Z,2.60
2022-09-28T08:53:16.348Z,2.40
2022-09-28T08:55:38.607Z,2.93
2022-09-28T08:58:03.586Z,2.97
2022-09-28T09:00:33.324Z,2.13
2022-09-28T09:02:54.527Z,2.20
2022-09-28T09:05:18.482Z,2.10
2022-09-28T09:07:49.435Z,2.10
2022-09-28T09:10:15.036Z,2.20
2022-09-28T09:12:40.949Z,3.13
2022-09-28T09:15:11.951Z,2.70
2022-09-28T09:17:39.477Z,2.60
2022-09-28T09:20:05.205Z,2.17
2022-09-28T09:22:31.369Z,2.40
2022-09-28T09:24:53.954Z,2.07
2022-09-28T09:27:19.263Z,2.50
2022-09-28T09:29:49.403Z,2.30
2022-09-28T09:32:18.411Z,2.10
2022-09-28T09:34:47.714Z,2.37
2022-09-28T09:37:17.948Z,2.30
2022-09-28T09:39:45.886Z,2.60
2022-09-28T09:42:15.534Z,2.27
2022-09-28T09:44:47.167Z,2.53
2022-09-28T09:47:10.064Z,2.50
2022-09-28T09:49:35.626Z,2.73
2022-09-28T09:51:58.188Z,2.00
2022-09-28T09:54:22.080Z,2.03
2022-09-28T09:56:44.904Z,2.00
2022-09-28T09:59:08.659Z,2.30
2022-09-28T10:01:33.497Z,2.47
2022-09-28T10:03:55.719Z,2.67
2022-09-28T10:06:20.576Z,2.87
2022-09-28T10:08:43.965Z,2.20
2022-09-28T10:11:08.646Z,1.80
2022-09-28T10:13:32.108Z,2.10
2022-09-28T10:15:53.176Z,1.90
2022-09-28T10:18:15.736Z,1.90
2022-09-28T10:20:38.800Z,2.30
2022-09-28T10:23:03.159Z,2.33
2022-09-28T10:25:24.558Z,1.93
2022-09-28T10:27:47.452Z,1.93
2022-09-28T10:30:16.089Z,2.00
2022-09-28T10:32:38.778Z,2.10
2022-09-28T10:35:14.292Z,1.93
2022-09-28T10:37:35.692Z,2.23
2022-09-28T10:39:58.502Z,2.07
2022-09-28T10:42:20.908Z,1.90
2022-09-28T10:44:50.649Z,1.97
2022-09-28T10:47:16.900Z,2.40
2022-09-28T10:49:45.874Z,2.50
2022-09-28T10:52:29.194Z,2.67
2022-09-28T10:54:53.777Z,2.00
2022-09-28T10:57:27.861Z,1.60
2022-09-28T10:59:48.918Z,3.33
2022-09-28T11:02:21.010Z,1.80
2022-09-28T11:04:43.358Z,1.93
2022-09-28T11:07:04.603Z,1.93
2022-09-28T11:09:30.512Z,1.93
2022-09-28T11:11:52.709Z,2.20
2022-09-28T11:14:31.264Z,1.80
2022-09-28T11:17:09.015Z,2.13
2022-09-28T11:19:30.653Z,1.90
2022-09-28T11:21:51.808Z,2.00
2022-09-28T11:24:20.774Z,1.93
2022-09-28T11:26:43.161Z,1.70
2022-09-28T11:29:04.854Z,1.80
2022-09-28T11:31:29.079Z,2.30
2022-09-28T11:33:50.978Z,1.97
2022-09-28T11:36:24.291Z,1.73
2022-09-28T11:38:50.434Z,1.67
2022-09-28T11:41:24.012Z,1.93
2022-09-28T11:43:57.567Z,2.10
2022-09-28T11:46:23.519Z,1.70
2022-09-28T11:48:48.475Z,1.80
2022-09-28T11:51:11.642Z,1.63
2022-09-28T11:53:36.992Z,2.07
2022-09-28T11:56:03.199Z,1.90
2022-09-28T11:58:30.393Z,1.60
2022-09-28T12:00:53.649Z,1.77
2022-09-28T12:03:17.206Z,1.90
2022-09-28T12:05:41.564Z,1.73
2022-09-28T12:08:05.366Z,1.63
2022-09-28T12:10:31.535Z,2.40
2022-09-28T12:12:55.325Z,1.97
2022-09-28T12:15:18.913Z,1.80
2022-09-28T12:17:41.794Z,1.57
2022-09-28T12:20:04.724Z,1.93
2022-09-28T12:22:31.109Z,1.90
2022-09-28T12:24:53.979Z,1.70
2022-09-28T12:27:17.709Z,1.70
2022-09-28T12:29:41.180Z,1.80
2022-09-28T12:32:05.789Z,1.73
2022-09-28T12:34:27.231Z,1.87
2022-09-28T12:36:52.230Z,1.80
2022-09-28T12:39:35.522Z,1.70
2022-09-28T12:42:02.893Z,1.70
2022-09-28T12:44:37.264Z,1.70
2022-09-28T12:47:09.977Z,2.30
2022-09-28T12:50:27.195Z,1.67
2022-09-28T12:52:24.354Z,1.60
2022-09-28T12:54:57.141Z,1.67
2022-09-28T12:57:32.029Z,2.00
2022-09-28T13:00:00.681Z,1.40
2022-09-28T13:02:28.739Z,1.67
2022-09-28T13:04:56.243Z,1.50
2022-09-28T13:07:20.685Z,1.70
2022-09-28T13:09:47.300Z,1.60
2022-09-28T13:12:16.141Z,1.70
2022-09-28T13:14:55.488Z,1.87
2022-09-28T13:17:20.464Z,1.60
2022-09-28T13:19:43.980Z,1.67
2022-09-28T13:22:10.351Z,2.00
2022-09-28T13:24:33.613Z,1.60
2022-09-28T13:26:57.705Z,1.30
2022-09-28T13:29:22.151Z,1.70
2022-09-28T13:31:49.459Z,1.70
2022-09-28T13:34:14.534Z,2.33
2022-09-28T13:36:37.573Z,2.73
2022-09-28T13:38:59.593Z,2.20
2022-09-28T13:41:32.015Z,2.33
2022-09-28T13:44:17.103Z,2.30
2022-09-28T13:46:42.680Z,1.80
2022-09-28T13:49:07.016Z,2.50
2022-09-28T13:51:38.021Z,2.00
2022-09-28T13:54:06.803Z,2.00
2022-09-28T13:56:31.228Z,2.73
2022-09-28T13:58:54.317Z,2.67
2022-09-28T14:01:18.517Z,2.00
2022-09-28T14:03:53.912Z,1.50
2022-09-28T14:06:25.856Z,1.70
2022-09-28T14:09:07.146Z,2.10
2022-09-28T14:11:46.004Z,3.10
2022-09-28T14:14:07.237Z,2.50
2022-09-28T14:16:31.050Z,2.03
2022-09-28T14:18:55.737Z,3.23
2022-09-28T14:21:34.854Z,2.40
2022-09-28T14:24:09.489Z,2.27
2022-09-28T14:26:45.887Z,1.87
2022-09-28T14:29:12.701Z,1.90
2022-09-28T14:31:34.235Z,1.40
2022-09-28T14:33:58.920Z,1.60
2022-09-28T14:36:45.471Z,1.70
2022-09-28T14:39:24.132Z,1.40
2022-09-28T14:41:45.740Z,1.40
2022-09-28T14:44:09.066Z,1.50
2022-09-28T14:46:35.510Z,1.43
2022-09-28T14:49:01.564Z,1.80
2022-09-28T14:51:41.627Z,1.30
2022-09-28T14:54:04.907Z,1.70
2022-09-28T14:56:30.518Z,1.53
2022-09-28T14:58:55.362Z,1.50
2022-09-28T15:01:20.504Z,1.97
2022-09-28T15:03:43.140Z,1.80
2022-09-28T15:06:06.057Z,1.30
2022-09-28T15:08:36.801Z,2.00
2022-09-28T15:11:00.789Z,1.80
2022-09-28T15:13:24.974Z,1.50
2022-09-28T15:15:50.384Z,1.50
2022-09-28T15:18:21.776Z,1.57
2022-09-28T15:20:46.530Z,1.70
2022-09-28T15:23:24.277Z,1.43
2022-09-28T15:25:52.277Z,1.60
2022-09-28T15:28:18.287Z,1.87
2022-09-28T15:30:39.541Z,2.00
2022-09-28T15:33:15.397Z,2.30
2022-09-28T15:35:38.895Z,2.10
2022-09-28T15:38:00.195Z,2.03
2022-09-28T15:40:27.676Z,2.17
2022-09-28T15:42:48.976Z,2.13
2022-09-28T15:45:26.512Z,2.80
2022-09-28T15:47:47.858Z,1.90
2022-09-28T15:50:21.054Z,2.00
2022-09-28T15:52:46.485Z,1.60
2022-09-28T15:55:18.773Z,2.27
2022-09-28T15:57:41.361Z,1.70
2022-09-28T16:00:02.701Z,2.00
2022-09-28T16:02:25.634Z,1.70
2022-09-28T16:04:50.578Z,2.57
2022-09-28T16:07:18.760Z,2.00
2022-09-28T16:09:54.058Z,2.00
2022-09-28T16:12:15.508Z,2.17
2022-09-28T16:14:38.437Z,1.93
2022-09-28T16:17:00.064Z,1.90
2022-09-28T16:19:24.072Z,2.17
2022-09-28T16:21:46.420Z,2.70
2022-09-28T16:24:08.486Z,2.63
2022-09-28T16:26:32.061Z,2.80
2022-09-28T16:28:54.213Z,2.67
2022-09-28T16:31:27.145Z,2.80
2022-09-28T16:33:54.115Z,2.87
2022-09-28T16:36:16.857Z,2.80
2022-09-28T16:38:38.935Z,2.60
2022-09-28T16:41:02.824Z,2.50
2022-09-28T16:43:26.870Z,2.60
2022-09-28T16:45:48.377Z,3.20
2022-09-28T16:48:14.623Z,3.43
2022-09-28T16:50:35.688Z,2.83
2022-09-28T16:53:29.709Z,2.50
2022-09-28T16:55:50.995Z,2.20
2022-09-28T16:58:13.037Z,2.10
2022-09-28T17:00:33.969Z,1.63
2022-09-28T17:02:57.193Z,1.87
2022-09-28T17:05:20.591Z,2.03
2022-09-28T17:07:41.777Z,1.80
2022-09-28T17:10:03.456Z,1.80
2022-09-28T17:12:28.966Z,2.13
2022-09-28T17:14:50.337Z,2.00
2022-09-28T17:17:16.331Z,1.90
2022-09-28T17:19:38.462Z,2.60
2022-09-28T17:22:01.233Z,2.47
2022-09-28T17:24:22.250Z,2.67
2022-09-28T17:26:44.880Z,3.27
2022-09-28T17:29:08.681Z,3.17
2022-09-28T17:31:31.220Z,3.30
2022-09-28T17:33:52.677Z,3.00
2022-09-28T17:36:14.508Z,2.93
2022-09-28T17:38:37.201Z,3.40
2022-09-28T17:40:58.776Z,3.13
2022-09-28T17:43:22.141Z,3.43
2022-09-28T17:45:45.989Z,3.77
2022-09-28T17:48:09.111Z,3.20
2022-09-28T17:50:32.388Z,3.80
2022-09-28T17:52:53.950Z,3.70
2022-09-28T17:55:18.082Z,3.53
2022-09-28T17:57:39.175Z,3.43
2022-09-28T18:00:00.691Z,3.67
2022-09-28T18:02:21.750Z,3.47
2022-09-28T18:04:51.356Z,3.63
2022-09-28T18:07:13.115Z,4.10
2022-09-28T18:09:34.329Z,4.40
2022-09-28T18:12:00.329Z,3.90
2022-09-28T18:14:21.671Z,3.80
2022-09-28T18:16:44.045Z,4.43
2022-09-28T18:19:05.087Z,4.70
2022-09-28T18:21:26.436Z,4.30
2022-09-28T18:23:47.651Z,4.07
2022-09-28T18:26:11.827Z,4.27
2022-09-28T18:28:34.259Z,3.80
2022-09-28T18:30:55.570Z,4.00
2022-09-28T18:33:16.603Z,4.00
2022-09-28T18:35:37.857Z,10.47
2022-09-28T18:37:59.274Z,7.07
2022-09-28T18:40:21.814Z,11.67
2022-09-28T18:42:43.022Z,21.70
2022-09-28T18:45:07.781Z,11.70
2022-09-28T18:47:28.995Z,10.43
2022-09-28T18:49:50.971Z,10.10
2022-09-28T18:52:11.942Z,10.10
2022-09-28T18:54:33.188Z,11.37
2022-09-28T18:56:58.314Z,7.50
2022-09-28T18:59:19.548Z,8.23
2022-09-28T19:01:42.723Z,8.13
2022-09-28T19:04:05.282Z,7.87
2022-09-28T19:06:26.670Z,6.50
2022-09-28T19:08:52.303Z,6.33
2022-09-28T19:11:14.111Z,7.10
2022-09-28T19:13:35.322Z,7.10
2022-09-28T19:15:56.590Z,7.43
2022-09-28T19:18:19.472Z,8.90
2022-09-28T19:20:41.139Z,14.10
2022-09-28T19:23:02.631Z,9.47
2022-09-28T19:25:24.508Z,7.30
2022-09-28T19:27:47.885Z,7.43
2022-09-28T19:30:10.161Z,36.63
2022-09-28T19:32:31.328Z,9.13
2022-09-28T19:34:55.186Z,6.93
2022-09-28T19:37:16.169Z,7.20
2022-09-28T19:39:37.415Z,6.63
2022-09-28T19:41:59.771Z,6.03
2022-09-28T19:44:25.617Z,5.70
2022-09-28T19:46:47.180Z,5.50
2022-09-28T19:49:09.158Z,5.30
2022-09-28T19:51:31.923Z,5.20
2022-09-28T19:53:53.279Z,5.00
2022-09-28T19:56:16.608Z,5.23
2022-09-28T19:58:37.817Z,4.90
2022-09-28T20:00:59.076Z,5.00
2022-09-28T20:03:20.198Z,5.20
2022-09-28T20:05:42.448Z,4.40
2022-09-28T20:08:05.030Z,5.10
2022-09-28T20:10:26.286Z,5.43
2022-09-28T20:12:47.210Z,5.10
2022-09-28T20:15:10.618Z,4.83
2022-09-28T20:17:32.085Z,4.67
2022-09-28T20:19:53.474Z,5.10
2022-09-28T20:22:16.473Z,5.40
2022-09-28T20:24:39.721Z,5.40
2022-09-28T20:27:01.255Z,5.60
2022-09-28T20:29:23.005Z,4.80
2022-09-28T20:31:46.501Z,5.43
2022-09-28T20:34:08.116Z,5.37
2022-09-28T20:36:31.747Z,5.30
2022-09-28T20:38:54.047Z,5.97
2022-09-28T20:41:18.539Z,5.97
2022-09-28T20:43:40.688Z,5.87
2022-09-28T20:46:02.377Z,6.60
2022-09-28T20:48:24.553Z,7.23
2022-09-28T20:50:45.441Z,6.73
2022-09-28T20:53:06.682Z,7.73
2022-09-28T20:55:28.001Z,7.03
2022-09-28T20:57:50.544Z,7.27
2022-09-28T21:00:12.447Z,7.03
2022-09-28T21:02:33.808Z,7.47
2022-09-28T21:04:55.181Z,7.23
2022-09-28T21:07:16.531Z,6.97
2022-09-28T21:09:38.434Z,7.10
2022-09-28T21:11:59.935Z,6.90
2022-09-28T21:14:22.999Z,7.47
2022-09-28T21:16:44.244Z,6.80
2022-09-28T21:19:05.568Z,7.50
2022-09-28T21:21:26.699Z,6.17
2022-09-28T21:23:47.758Z,5.70
2022-09-28T21:26:09.715Z,5.87
2022-09-28T21:28:30.774Z,4.90
2022-09-28T21:30:53.436Z,5.50
2022-09-28T21:33:14.691Z,5.67
2022-09-28T21:35:36.592Z,7.40
2022-09-28T21:37:57.921Z,7.73
2022-09-28T21:40:20.146Z,7.70
2022-09-28T21:42:41.062Z,7.73
2022-09-28T21:45:02.507Z,6.80
2022-09-28T21:47:25.174Z,5.47
2022-09-28T21:49:46.132Z,5.60
2022-09-28T21:52:07.432Z,5.53
2022-09-28T21:54:28.873Z,6.00
2022-09-28T21:56:49.895Z,6.03
2022-09-28T21:59:11.144Z,5.30
2022-09-28T22:01:32.476Z,4.93
2022-09-28T22:03:55.561Z,4.70
2022-09-28T22:06:17.778Z,4.93
2022-09-28T22:08:39.347Z,5.20
2022-09-28T22:11:01.560Z,5.00
2022-09-28T22:13:23.010Z,5.13
2022-09-28T22:15:44.545Z,5.57
2022-09-28T22:18:05.484Z,5.63
2022-09-28T22:20:28.091Z,6.23
2022-09-28T22:22:49.888Z,6.67
2022-09-28T22:25:11.158Z,5.67
2022-09-28T22:27:32.850Z,5.70
2022-09-28T22:29:53.893Z,5.90
2022-09-28T22:32:15.032Z,5.43
2022-09-28T22:34:36.225Z,5.37
2022-09-28T22:36:58.692Z,5.40
2022-09-28T22:39:19.882Z,5.50
2022-09-28T22:41:41.732Z,6.00
2022-09-28T22:44:02.887Z,5.57
2022-09-28T22:46:25.511Z,5.60
2022-09-28T22:48:47.797Z,5.77
2022-09-28T22:51:09.335Z,5.97
2022-09-28T22:53:31.825Z,5.83
2022-09-28T22:55:53.179Z,5.93
2022-09-28T22:58:14.680Z,6.17
2022-09-28T23:00:35.901Z,6.50
2022-09-28T23:02:57.244Z,6.07
2022-09-28T23:05:19.388Z,6.00
2022-09-28T23:07:40.485Z,6.30
2022-09-28T23:10:03.047Z,6.67
2022-09-28T23:12:24.171Z,7.33
2022-09-28T23:14:45.336Z,7.77
2022-09-28T23:17:06.776Z,7.10
2022-09-28T23:19:28.027Z,6.17
2022-09-28T23:21:49.395Z,6.77
2022-09-28T23:24:11.147Z,5.60
2022-09-28T23:26:34.329Z,6.53
2022-09-28T23:28:55.339Z,6.03
2022-09-28T23:31:17.903Z,5.60
2022-09-28T23:33:39.193Z,5.67
2022-09-28T23:36:01.754Z,6.27
2022-09-28T23:38:22.671Z,6.77
2022-09-28T23:40:44.037Z,6.87
2022-09-28T23:43:06.690Z,6.67
2022-09-28T23:45:27.950Z,6.83
2022-09-28T23:47:49.017Z,6.53
2022-09-28T23:50:10.425Z,6.47
2022-09-28T23:52:31.475Z,6.70
2022-09-28T23:54:52.570Z,6.67
2022-09-28T23:57:13.804Z,6.20
2022-09-28T23:59:36.465Z,6.90
